Time;durP1;ratioP1;P1;durP2;ratioP2;P2;SDS_P1;SDS_P2;PMS_P1;PMS_P2;Temp;Humidity;BMP_temperature;BMP_pressure;BME280_temperature;BME280_humidity;BME280_pressure;Samples;Min_cycle;Max_cycle;Signal;HPM_P1;HPM_P2
2023/06/01 00:04:52;;;;;;;4.20;2.33;;;;;;;9.40;90.33;96888.13;10538929;28;20218;-64
2023/06/01 00:09:52;;;;;;;5.93;2.30;;;;;;;9.40;90.72;96887.28;10538699;28;20329;-64
2023/06/01 00:14:53;;;;;;;5.57;2.40;;;;;;;9.37;91.24;96885.81;10538365;28;20191;-64
2023/06/01 00:19:53;;;;;;;4.27;2.00;;;;;;;9.24;92.08;96893.97;10538291;28;20632;-64
2023/06/01 00:24:53;;;;;;;3.23;2.20;;;;;;;9.18;92.94;96891.94;10538042;28;20198;-64
2023/06/01 00:29:54;;;;;;;4.57;2.70;;;;;;;9.14;93.33;96887.94;10537628;28;20237;-62
2023/06/01 00:34:54;;;;;;;5.17;2.30;;;;;;;9.09;93.68;96880.53;10537752;28;20210;-63
2023/06/01 00:39:54;;;;;;;4.87;2.20;;;;;;;8.98;94.77;96878.09;10532323;28;20222;-63
2023/06/01 00:44:55;;;;;;;4.77;2.40;;;;;;;8.89;95.91;96885.00;10551550;28;20201;-64
2023/06/01 00:49:55;;;;;;;8.13;2.20;;;;;;;8.83;96.50;96880.34;10574432;28;20218;-64
2023/06/01 00:54:56;;;;;;;4.80;2.77;;;;;;;8.77;97.34;96872.25;10574667;28;20189;-65
2023/06/01 00:59:57;;;;;;;5.63;2.70;;;;;;;8.81;97.12;96861.38;10573910;28;20222;-65
2023/06/01 01:04:59;;;;;;;5.43;2.30;;;;;;;8.82;96.45;96865.66;10578354;28;20186;-65
2023/06/01 01:10:12;;;;;;;3.23;2.10;;;;;;;8.79;96.73;96867.69;10589634;22;20830;-67
2023/06/01 01:15:34;;;;;;;3.50;2.30;;;;;;;8.67;97.72;96861.84;10577601;28;20245;-67
2023/06/01 01:20:37;;;;;;;6.20;2.43;;;;;;;8.62;98.43;96871.88;10560201;28;20282;-67
2023/06/01 01:25:58;;;;;;;4.57;2.43;;;;;;;8.57;98.97;96867.06;10537284;28;20675;-67
2023/06/01 01:30:59;;;;;;;4.33;2.03;;;;;;;8.50;99.67;96868.56;10539431;28;20699;-66
2023/06/01 01:36:00;;;;;;;5.03;2.50;;;;;;;8.44;100.00;96858.69;10577838;28;20220;-67
2023/06/01 01:41:01;;;;;;;6.17;2.20;;;;;;;8.43;100.00;96865.69;10577734;28;20300;-66
2023/06/01 01:46:19;;;;;;;4.83;2.80;;;;;;;8.33;100.00;96870.91;10577607;28;20643;-67
2023/06/01 01:51:24;;;;;;;5.60;3.07;;;;;;;8.35;100.00;96857.72;10558961;28;20617;-67
2023/06/01 01:56:26;;;;;;;5.60;3.00;;;;;;;8.28;100.00;96848.78;10534459;28;20241;-67
2023/06/01 02:01:26;;;;;;;4.50;2.27;;;;;;;8.35;100.00;96844.69;10551538;28;20209;-67
2023/06/01 02:06:27;;;;;;;3.20;2.50;;;;;;;8.31;100.00;96849.34;10576969;28;20612;-66
2023/06/01 02:11:27;;;;;;;3.63;2.47;;;;;;;8.33;100.00;96839.59;10550818;28;20241;-67
2023/06/01 02:16:28;;;;;;;5.83;2.63;;;;;;;8.29;100.00;96837.41;10576304;28;20285;-67
2023/06/01 02:21:28;;;;;;;5.97;2.33;;;;;;;8.27;100.00;96829.72;10551015;28;20584;-67
2023/06/01 02:26:34;;;;;;;5.23;2.23;;;;;;;8.20;100.00;96821.59;10552029;28;20191;-67
2023/06/01 02:31:34;;;;;;;5.30;2.50;;;;;;;8.17;100.00;96826.28;10576792;28;20256;-67
2023/06/01 02:36:36;;;;;;;7.50;2.43;;;;;;;8.17;99.61;96819.25;10552053;28;20225;-67
2023/06/01 02:41:36;;;;;;;3.73;2.60;;;;;;;8.17;99.58;96816.66;10551866;28;20664;-67
2023/06/01 02:46:36;;;;;;;3.37;2.20;;;;;;;8.12;99.82;96818.88;10550462;28;20190;-67
2023/06/01 02:51:37;;;;;;;7.20;2.70;;;;;;;8.08;99.92;96822.69;10581367;28;20190;-66
2023/06/01 02:56:57;;;;;;;8.67;2.20;;;;;;;7.93;100.00;96811.03;10583242;28;20253;-67
2023/06/01 03:02:08;;;;;;;7.23;2.33;;;;;;;7.94;100.00;96802.25;10560810;28;20191;-67
2023/06/01 03:07:08;;;;;;;4.10;2.33;;;;;;;8.04;99.56;96816.94;10521251;28;20234;-66
2023/06/01 03:12:12;;;;;;;5.20;2.73;;;;;;;7.94;99.28;96794.44;10521696;28;20179;-67
2023/06/01 03:17:12;;;;;;;4.23;1.93;;;;;;;7.89;99.75;96797.47;10521375;28;20214;-66
2023/06/01 03:22:13;;;;;;;2.63;2.13;;;;;;;7.97;98.74;96796.78;10521529;28;20229;-66
2023/06/01 03:27:13;;;;;;;3.67;2.43;;;;;;;7.89;98.93;96796.63;10521336;28;20213;-67
2023/06/01 03:32:14;;;;;;;6.77;2.30;;;;;;;7.86;98.82;96793.34;10521128;28;20231;-67
2023/06/01 03:37:14;;;;;;;4.37;2.53;;;;;;;7.86;98.73;96797.72;10539890;28;20218;-67
2023/06/01 03:42:15;;;;;;;5.43;2.40;;;;;;;7.93;98.15;96792.78;10521005;28;20269;-66
2023/06/01 03:47:15;;;;;;;5.10;2.50;;;;;;;8.01;96.84;96795.53;10539747;28;20207;-67
2023/06/01 03:52:18;;;;;;;4.67;2.53;;;;;;;8.02;96.37;96786.72;10520508;28;20225;-67
2023/06/01 03:57:18;;;;;;;6.87;2.80;;;;;;;8.06;95.96;96784.69;10520576;28;20225;-66
2023/06/01 04:02:19;;;;;;;3.87;2.10;;;;;;;8.08;95.26;96780.97;10519268;28;20619;-66
2023/06/01 04:07:21;;;;;;;4.43;2.13;;;;;;;8.19;94.27;96780.81;10538578;28;20638;-65
2023/06/01 04:12:21;;;;;;;5.03;2.40;;;;;;;8.36;92.72;96781.03;10512353;28;20194;-66
2023/06/01 04:17:22;;;;;;;5.23;2.43;;;;;;;8.50;91.84;96778.03;10520574;28;20607;-67
2023/06/01 04:22:22;;;;;;;4.53;2.30;;;;;;;8.69;90.75;96784.97;10512296;28;20309;-67
2023/06/01 04:27:24;;;;;;;2.83;2.00;;;;;;;8.97;88.19;96765.91;10538122;28;20206;-67
2023/06/01 04:32:27;;;;;;;4.17;2.33;;;;;;;8.99;88.41;96774.41;10538181;28;20186;-67
2023/06/01 04:37:29;;;;;;;5.70;2.43;;;;;;;9.20;88.14;96772.38;10512039;28;20306;-67
2023/06/01 04:42:30;;;;;;;5.27;2.17;;;;;;;9.41;86.12;96759.03;10512305;28;20695;-67
2023/06/01 04:47:31;;;;;;;3.67;2.10;;;;;;;9.67;85.70;96767.94;10512267;28;20202;-66
2023/06/01 04:52:32;;;;;;;2.97;2.07;;;;;;;9.84;85.82;96766.31;10512318;28;20562;-66
2023/06/01 04:57:35;;;;;;;3.20;2.33;;;;;;;10.03;86.49;96768.75;10512161;28;20222;-66
2023/06/01 05:02:37;;;;;;;2.67;2.03;;;;;;;10.25;85.14;96762.19;10512458;28;20676;-66
2023/06/01 05:07:38;;;;;;;7.13;2.60;;;;;;;10.55;83.94;96749.66;10512350;28;20234;-66
2023/06/01 05:12:39;;;;;;;4.63;1.93;;;;;;;10.90;83.04;96753.09;10512382;28;20190;-66
2023/06/01 05:17:40;;;;;;;3.60;2.30;;;;;;;11.27;82.39;96756.34;10512501;28;20708;-66
2023/06/01 05:22:44;;;;;;;4.47;2.50;;;;;;;11.67;82.70;96762.63;10513226;28;20187;-66
2023/06/01 05:27:44;;;;;;;8.38;2.38;;;;;;;11.75;80.52;96750.34;10512808;28;20226;-66
2023/06/01 05:32:45;;;;;;;6.47;2.53;;;;;;;12.15;80.54;96747.94;10512929;28;20183;-65
2023/06/01 05:37:49;;;;;;;6.05;2.72;;;;;;;12.43;78.56;96737.06;10513587;28;20616;-65
2023/06/01 05:42:50;;;;;;;3.28;2.35;;;;;;;12.98;76.61;96714.38;10513413;28;20217;-66
2023/06/01 05:47:50;;;;;;;6.18;2.65;;;;;;;13.69;75.47;96711.66;10513293;28;20727;-65
2023/06/01 05:52:51;;;;;;;3.75;2.40;;;;;;;14.40;73.58;96708.75;10513228;28;20198;-66
2023/06/01 05:57:51;;;;;;;3.17;2.35;;;;;;;14.71;72.62;96695.41;10513120;28;20218;-66
2023/06/01 06:02:52;;;;;;;3.00;2.35;;;;;;;15.39;70.11;96683.81;10513129;28;20187;-66
2023/06/01 06:07:52;;;;;;;6.53;2.42;;;;;;;15.97;66.96;96652.03;10534914;28;20222;-67
2023/06/01 06:12:53;;;;;;;4.40;2.30;;;;;;;15.90;65.39;96652.00;10535160;28;20195;-67
2023/06/01 06:17:53;;;;;;;6.55;2.80;;;;;;;16.43;64.88;96656.00;10521632;28;20302;-67
2023/06/01 06:22:54;;;;;;;7.45;2.85;;;;;;;17.50;62.28;96636.03;10576086;28;20198;-67
2023/06/01 06:27:54;;;;;;;10.15;2.78;;;;;;;18.71;56.52;96576.53;10584260;28;20213;-67
2023/06/01 06:32:55;;;;;;;4.38;2.40;;;;;;;18.79;56.96;96593.22;10585261;28;20189;-68
2023/06/01 06:37:55;;;;;;;9.25;2.88;;;;;;;20.02;51.89;96524.72;10584697;28;20249;-68
2023/06/01 06:42:55;;;;;;;8.48;2.85;;;;;;;20.21;51.37;96526.31;10584640;28;20190;-67
2023/06/01 06:47:56;;;;;;;8.93;2.78;;;;;;;18.23;55.71;96571.59;10584628;28;20286;-68
2023/06/01 06:52:56;;;;;;;4.47;2.50;;;;;;;18.47;56.29;96596.63;10584172;28;20201;-68
2023/06/01 06:57:57;;;;;;;6.78;2.95;;;;;;;17.78;58.69;96627.09;10573499;28;20290;-67
2023/06/01 07:02:59;;;;;;;9.32;3.05;;;;;;;16.69;60.97;96629.72;10581247;28;20281;-68
2023/06/01 07:07:59;;;;;;;5.55;3.08;;;;;;;15.83;64.23;96673.09;10584968;22;20240;-62
2023/06/01 07:12:59;;;;;;;8.05;2.85;;;;;;;16.66;61.92;96638.03;10450179;28;20196;-62
2023/06/01 07:18:00;;;;;;;7.30;2.60;;;;;;;16.22;61.85;96634.75;10455089;28;20232;-62
2023/06/01 07:23:00;;;;;;;8.27;3.25;;;;;;;15.82;64.54;96658.25;10456495;28;20198;-61
2023/06/01 07:28:06;;;;;;;8.38;2.58;;;;;;;17.43;61.03;96633.38;10416438;28;20291;-63
2023/06/01 07:33:07;;;;;;;12.27;2.70;;;;;;;18.35;57.78;96591.13;10414789;28;20193;-61
2023/06/01 07:38:08;;;;;;;9.48;2.95;;;;;;;17.52;58.08;96578.41;10427190;28;20261;-62
2023/06/01 07:43:08;;;;;;;4.15;2.85;;;;;;;16.60;60.29;96604.44;10455456;28;20219;-62
2023/06/01 07:48:08;;;;;;;4.13;2.55;;;;;;;17.35;59.75;96617.69;10443994;28;20220;-63
2023/06/01 07:53:09;;;;;;;4.32;2.30;;;;;;;19.11;56.38;96588.81;10441719;28;20188;-63
2023/06/01 07:58:09;;;;;;;5.95;2.22;;;;;;;19.78;55.51;96583.00;10454851;28;20228;-63
2023/06/01 08:03:10;;;;;;;4.93;1.98;;;;;;;21.29;51.20;96533.72;10454669;28;20640;-62
2023/06/01 08:08:11;;;;;;;3.60;2.20;;;;;;;19.57;54.00;96550.44;10454369;28;20321;-61
2023/06/01 08:13:11;;;;;;;7.45;2.80;;;;;;;19.20;54.64;96558.31;10454265;28;20191;-63
2023/06/01 08:18:11;;;;;;;10.88;2.03;;;;;;;19.06;57.41;96610.66;10454040;28;20222;-62
2023/06/01 08:23:13;;;;;;;6.35;2.58;;;;;;;20.85;52.79;96553.38;10452644;28;20204;-63
2023/06/01 08:28:13;;;;;;;6.63;2.42;;;;;;;21.64;49.60;96509.78;10453341;28;20297;-62
2023/06/01 08:33:15;;;;;;;6.88;2.42;;;;;;;21.96;49.53;96533.44;10453711;28;20685;-63
2023/06/01 08:38:15;;;;;;;10.32;2.92;;;;;;;19.21;53.25;96517.41;10452944;28;20286;-61
2023/06/01 08:43:19;;;;;;;7.78;2.55;;;;;;;21.30;50.58;96522.00;10453253;28;20206;-63
2023/06/01 08:48:20;;;;;;;6.85;2.30;;;;;;;21.46;51.98;96560.50;10452314;28;20208;-63
2023/06/01 08:53:21;;;;;;;5.38;2.60;;;;;;;23.89;44.31;96454.53;10452561;28;20188;-62
2023/06/01 08:58:22;;;;;;;4.20;2.25;;;;;;;23.94;45.13;96474.16;10451495;28;20224;-62
2023/06/01 09:03:22;;;;;;;7.55;2.47;;;;;;;24.70;42.32;96440.47;10434478;28;20192;-63
2023/06/01 09:08:23;;;;;;;5.82;2.75;;;;;;;22.44;46.91;96476.25;10452253;28;20263;-62
2023/06/01 09:13:33;;;;;;;6.45;2.63;;;;;;;22.61;47.64;96504.88;10452069;28;20274;-63
2023/06/01 09:18:34;;;;;;;11.73;2.72;;;;;;;23.65;45.68;96478.81;10451604;28;20224;-63
2023/06/01 09:23:34;;;;;;;10.10;3.13;;;;;;;24.81;43.92;96471.69;10451810;28;20183;-62
2023/06/01 09:28:54;;;;;;;6.90;2.83;;;;;;;23.94;43.77;96439.38;10450271;28;20306;-63
2023/06/01 09:34:03;;;;;;;7.47;2.63;;;;;;;23.54;43.55;96426.22;10451058;28;20202;-63
2023/06/01 09:39:09;;;;;;;5.60;2.20;;;;;;;24.85;40.15;96379.00;10450978;28;20311;-63
2023/06/01 09:44:09;;;;;;;6.55;2.40;;;;;;;22.58;43.42;96391.34;10426180;28;20207;-63
2023/06/01 09:49:10;;;;;;;8.13;2.83;;;;;;;23.13;42.53;96389.84;10410019;28;20230;-63
2023/06/01 09:54:10;;;;;;;7.75;3.60;;;;;;;24.18;41.01;96394.44;10409147;28;20208;-63
2023/06/01 09:59:10;;;;;;;5.93;2.60;;;;;;;22.77;42.26;96378.59;10420068;28;20226;-62
2023/06/01 10:04:12;;;;;;;6.80;2.60;;;;;;;20.89;47.04;96436.59;10460389;28;20188;-63
2023/06/01 10:09:15;;;;;;;3.33;1.88;;;;;;;22.64;43.02;96394.13;10441326;28;20592;-62
2023/06/01 10:14:16;;;;;;;3.78;2.13;;;;;;;23.66;41.20;96390.31;10458969;28;20188;-63
2023/06/01 10:19:17;;;;;;;5.00;1.80;;;;;;;22.74;41.92;96354.22;10458280;28;20237;-62
2023/06/01 10:24:18;;;;;;;3.67;2.08;;;;;;;26.62;37.64;96393.00;10458959;28;20192;-63
2023/06/01 10:29:18;;;;;;;4.03;1.92;;;;;;;25.08;39.13;96369.81;10458131;28;20204;-62
2023/06/01 10:34:40;;;;;;;4.25;1.77;;;;;;;25.07;38.43;96338.69;10439530;28;20662;-61
2023/06/01 10:39:40;;;;;;;7.63;2.08;;;;;;;24.12;40.72;96368.69;10457789;28;20371;-62
2023/06/01 10:44:48;;;;;;;5.82;2.05;;;;;;;24.31;39.30;96349.59;10421141;28;20281;-63
2023/06/01 10:49:49;;;;;;;5.32;2.42;;;;;;;24.37;40.31;96365.44;10422155;28;20714;-63
2023/06/01 10:54:49;;;;;;;3.00;1.75;;;;;;;26.17;37.77;96361.22;10415481;28;20223;-62
2023/06/01 11:00:11;;;;;;;5.32;2.25;;;;;;;27.59;35.66;96335.63;10397573;28;20220;-63
2023/06/01 11:05:36;;;;;;;2.58;1.77;;;;;;;27.89;35.65;96340.06;10440424;28;20203;-61
2023/06/01 11:10:52;;;;;;;4.15;2.05;;;;;;;26.97;33.97;96247.06;10456221;28;20323;-61
2023/06/01 11:16:09;;;;;;;7.82;2.20;;;;;;;23.67;41.16;96346.44;10456601;28;20238;-61
2023/06/01 11:21:18;;;;;;;6.93;2.08;;;;;;;25.28;37.91;96296.72;10456147;28;20222;-61
2023/06/01 11:26:20;;;;;;;5.53;1.88;;;;;;;27.74;33.04;96257.50;10456536;28;20180;-64
2023/06/01 11:31:21;;;;;;;6.53;2.22;;;;;;;29.31;32.92;96299.94;10455777;28;20917;-63
2023/06/01 11:36:24;;;;;;;7.20;2.00;;;;;;;29.00;32.38;96262.47;10436979;28;20211;-63
2023/06/01 11:41:25;;;;;;;2.63;1.85;;;;;;;29.13;33.19;96288.78;10456049;28;20248;-64
2023/06/01 11:46:28;;;;;;;6.43;1.95;;;;;;;27.99;33.48;96257.66;10455648;28;20202;-64
2023/06/01 11:51:30;;;;;;;8.00;2.10;;;;;;;29.03;31.88;96253.03;10455429;28;20717;-61
2023/06/01 11:56:32;;;;;;;3.60;1.95;;;;;;;28.41;32.52;96240.13;10437383;28;20255;-62
2023/06/01 12:01:32;;;;;;;5.47;2.20;;;;;;;29.30;32.55;96268.66;10418261;28;20212;-63
2023/06/01 12:06:33;;;;;;;6.17;2.10;;;;;;;29.95;31.78;96267.31;10415439;28;20192;-63
2023/06/01 12:11:34;;;;;;;12.43;2.27;;;;;;;28.39;32.22;96226.09;10444859;28;20570;-64
2023/06/01 12:16:54;;;;;;;4.90;2.00;;;;;;;24.88;38.68;96282.00;10430575;28;20837;-62
2023/06/01 12:21:57;;;;;;;6.38;2.03;;;;;;;25.60;37.73;96277.00;10412078;28;20263;-64
2023/06/01 12:26:59;;;;;;;6.53;2.58;;;;;;;25.87;38.57;96318.19;10412738;28;20663;-65
2023/06/01 12:31:59;;;;;;;8.70;2.38;;;;;;;27.90;36.16;96319.34;10412377;28;20208;-62
2023/06/01 12:37:11;;;;;;;8.67;2.73;;;;;;;27.56;37.92;96358.50;10412276;28;20224;-62
2023/06/01 12:42:11;;;;;;;7.25;3.38;;;;;;;28.88;35.50;96316.00;10443158;28;20514;-62
2023/06/01 12:47:12;;;;;;;7.05;3.20;;;;;;;29.83;35.63;96352.28;10452845;28;20192;-65
2023/06/01 12:52:12;;;;;;;5.25;2.75;;;;;;;29.14;37.15;96357.00;10453060;28;20763;-65
2023/06/01 12:57:13;;;;;;;6.33;2.80;;;;;;;28.19;37.54;96329.44;10452349;28;20228;-65
2023/06/01 13:02:13;;;;;;;7.35;2.33;;;;;;;28.05;34.89;96235.78;10452340;28;20470;-66
2023/06/01 13:07:14;;;;;;;4.43;2.33;;;;;;;27.94;31.39;96131.94;10452469;28;20203;-65
2023/06/01 13:12:15;;;;;;;3.97;2.28;;;;;;;26.02;34.47;96169.78;10569481;22;20249;-67
2023/06/01 13:17:15;;;;;;;8.15;2.30;;;;;;;25.56;35.73;96151.75;10576852;28;20221;-67
2023/06/01 13:22:16;;;;;;;3.85;2.53;;;;;;;28.23;33.34;96226.25;10540792;28;20206;-68
2023/06/01 13:27:16;;;;;;;5.53;2.72;;;;;;;30.58;29.64;96196.59;10535030;28;20648;-68
2023/06/01 13:32:16;;;;;;;5.27;2.60;;;;;;;31.75;27.65;96181.00;10534703;28;20206;-68
2023/06/01 13:37:17;;;;;;;8.47;2.77;;;;;;;31.90;28.70;96200.69;10534486;28;20559;-68
2023/06/01 13:42:18;;;;;;;4.38;2.75;;;;;;;31.68;28.54;96168.97;10534097;28;20559;-67
2023/06/01 13:47:18;;;;;;;7.45;2.88;;;;;;;32.35;26.08;96128.31;10531071;28;20741;-68
2023/06/01 13:52:19;;;;;;;5.78;2.80;;;;;;;32.76;23.92;96061.34;10518356;28;20781;-68
2023/06/01 13:57:19;;;;;;;4.73;3.53;;;;;;;29.62;23.11;95883.84;10532824;28;20304;-68
2023/06/01 14:02:20;;;;;;;7.27;3.93;;;;;;;32.33;21.34;95948.91;10526682;28;20473;-68
2023/06/01 14:07:21;;;;;;;6.22;3.30;;;;;;;35.05;21.80;96092.44;10528468;28;20581;-69
2023/06/01 14:12:21;;;;;;;7.00;3.33;;;;;;;34.09;23.74;96108.00;10533363;28;20843;-69
2023/06/01 14:17:21;;;;;;;6.07;3.42;;;;;;;34.86;23.79;96122.78;10532068;28;20766;-69
2023/06/01 14:22:22;;;;;;;5.20;3.47;;;;;;;34.43;23.58;96095.44;10527365;28;20358;-68
2023/06/01 14:27:22;;;;;;;5.50;3.50;;;;;;;33.71;24.66;96092.38;10533384;28;20190;-69
2023/06/01 14:32:22;;;;;;;7.17;3.80;;;;;;;33.55;24.90;96083.13;10532366;28;20451;-68
2023/06/01 14:37:23;;;;;;;8.50;3.93;;;;;;;33.46;24.91;96085.84;10532715;28;20325;-68
2023/06/01 14:42:23;;;;;;;8.63;3.72;;;;;;;34.38;24.81;96139.16;10533134;28;20210;-68
2023/06/01 14:47:24;;;;;;;13.90;3.70;;;;;;;34.63;24.75;96136.66;10537253;28;20189;-69
2023/06/01 14:52:24;;;;;;;8.73;4.13;;;;;;;33.17;26.42;96119.03;10540591;28;20292;-68
2023/06/01 14:57:25;;;;;;;7.53;4.53;;;;;;;33.75;26.12;96136.84;10540908;28;20220;-68
2023/06/01 15:02:25;;;;;;;8.73;4.30;;;;;;;34.21;26.78;96158.97;10539801;28;20723;-68
2023/06/01 15:07:25;;;;;;;9.90;5.23;;;;;;;33.17;27.62;96151.59;10538375;28;20513;-68
2023/06/01 15:12:26;;;;;;;7.27;4.83;;;;;;;33.35;28.22;96168.75;10538229;28;20478;-68
2023/06/01 15:17:26;;;;;;;9.57;5.40;;;;;;;32.23;27.58;96106.41;10539171;28;20566;-68
2023/06/01 15:22:26;;;;;;;9.30;5.67;;;;;;;32.32;26.71;96063.88;10538382;28;20470;-68
2023/06/01 15:27:27;;;;;;;7.60;5.10;;;;;;;31.94;26.69;96061.59;10538160;28;20428;-68
2023/06/01 15:32:27;;;;;;;7.00;5.78;;;;;;;31.76;25.50;96039.06;10539009;28;20217;-68
2023/06/01 15:37:29;;;;;;;8.90;5.47;;;;;;;32.67;23.33;95998.94;10538993;28;20707;-68
2023/06/01 15:42:30;;;;;;;8.40;5.65;;;;;;;31.92;25.15;96023.19;10538865;28;20451;-68
2023/06/01 15:47:30;;;;;;;7.33;5.53;;;;;;;31.24;25.84;95998.88;10539052;28;20197;-68
2023/06/01 15:52:30;;;;;;;12.30;5.73;;;;;;;30.21;29.25;96071.25;10537271;28;20476;-68
2023/06/01 15:57:31;;;;;;;5.30;4.07;;;;;;;29.17;29.63;96044.34;10538361;28;20555;-68
2023/06/01 16:02:31;;;;;;;8.88;5.18;;;;;;;28.08;30.58;96041.34;10537937;28;20471;-67
2023/06/01 16:07:32;;;;;;;8.30;5.20;;;;;;;26.49;31.93;96021.75;10519783;28;20218;-67
2023/06/01 16:12:32;;;;;;;5.63;4.80;;;;;;;25.67;31.24;95986.22;10535884;28;20840;-68
2023/06/01 16:17:34;;;;;;;8.13;4.57;;;;;;;24.77;32.36;95993.69;10494720;28;20233;-68
2023/06/01 16:22:34;;;;;;;6.10;4.38;;;;;;;23.99;32.90;95973.84;10496672;28;20485;-68
2023/06/01 16:27:34;;;;;;;8.30;5.30;;;;;;;23.92;33.84;96009.94;10496472;28;20211;-68
2023/06/01 16:32:35;;;;;;;10.00;5.57;;;;;;;24.14;33.59;96015.94;10496075;28;20218;-68
2023/06/01 16:37:35;;;;;;;6.80;5.70;;;;;;;23.76;34.50;96025.84;10496069;28;20518;-67
2023/06/01 16:42:35;;;;;;;10.18;6.40;;;;;;;23.39;35.00;96029.34;10496025;28;20246;-68
2023/06/01 16:47:36;;;;;;;10.52;5.57;;;;;;;22.54;37.30;96061.88;10495828;28;20780;-68
2023/06/01 16:52:36;;;;;;;11.18;5.90;;;;;;;22.70;37.20;96057.50;10495655;28;20229;-67
2023/06/01 16:57:37;;;;;;;13.52;5.75;;;;;;;22.39;38.09;96073.16;10495283;28;20219;-68
2023/06/01 17:02:38;;;;;;;8.02;5.78;;;;;;;21.77;40.16;96115.97;10495107;28;20264;-67
2023/06/01 17:07:39;;;;;;;8.90;5.18;;;;;;;21.30;40.51;96106.34;10494694;28;20179;-68
2023/06/01 17:12:39;;;;;;;8.13;4.72;;;;;;;21.76;41.15;96154.34;10494489;28;20249;-68
2023/06/01 17:17:40;;;;;;;8.60;4.47;;;;;;;21.25;40.93;96123.06;10494817;28;20578;-68
2023/06/01 17:22:40;;;;;;;5.40;3.88;;;;;;;20.93;40.97;96118.19;10494217;28;20219;-68
2023/06/01 17:27:43;;;;;;;4.85;3.75;;;;;;;20.64;41.59;96125.31;10494740;28;20195;-68
2023/06/01 17:32:43;;;;;;;8.35;4.07;;;;;;;20.57;42.59;96165.38;10494227;28;20207;-68
2023/06/01 17:37:44;;;;;;;6.45;4.43;;;;;;;20.36;44.31;96203.22;10494091;28;20287;-68
2023/06/01 17:42:44;;;;;;;8.07;4.30;;;;;;;20.23;44.67;96207.72;10494155;28;20221;-68
2023/06/01 17:47:44;;;;;;;12.32;4.40;;;;;;;19.92;45.73;96232.75;10493865;28;20286;-68
2023/06/01 17:52:45;;;;;;;9.00;4.03;;;;;;;19.75;44.71;96208.63;10494004;28;20215;-68
2023/06/01 17:57:45;;;;;;;4.18;3.25;;;;;;;19.35;44.74;96195.91;10493632;28;20223;-67
2023/06/01 18:02:46;;;;;;;5.35;3.38;;;;;;;18.98;45.78;96214.56;10493653;28;20264;-67
2023/06/01 18:07:46;;;;;;;6.93;3.67;;;;;;;18.68;46.89;96228.50;10493681;28;20202;-68
2023/06/01 18:12:46;;;;;;;6.10;3.10;;;;;;;18.37;48.15;96243.50;10492804;28;20268;-67
2023/06/01 18:17:47;;;;;;;5.25;2.85;;;;;;;18.45;48.70;96258.31;10493032;28;20962;-67
2023/06/01 18:22:47;;;;;;;7.20;3.22;;;;;;;18.17;49.79;96265.69;10498240;28;20716;-67
2023/06/01 18:27:47;;;;;;;5.43;3.50;;;;;;;18.02;49.93;96273.13;10501066;28;20186;-67
2023/06/01 18:32:48;;;;;;;4.53;3.20;;;;;;;17.88;50.36;96277.69;10500691;28;20846;-67
2023/06/01 18:37:48;;;;;;;6.80;3.08;;;;;;;17.49;51.78;96306.00;10500545;28;20900;-66
2023/06/01 18:42:49;;;;;;;6.68;3.53;;;;;;;16.58;54.45;96340.19;10500224;28;20257;-66
2023/06/01 18:47:49;;;;;;;7.28;3.63;;;;;;;16.00;57.96;96400.66;10499978;28;20227;-66
2023/06/01 18:52:49;;;;;;;8.25;3.63;;;;;;;15.61;59.04;96397.63;10499890;28;20543;-66
2023/06/01 18:57:50;;;;;;;8.55;4.05;;;;;;;15.02;61.81;96433.19;10499362;28;20230;-67
2023/06/01 19:02:50;;;;;;;7.20;3.75;;;;;;;14.66;63.30;96439.41;10525176;28;20218;-66
2023/06/01 19:07:51;;;;;;;6.57;3.40;;;;;;;14.31;65.13;96441.06;10540144;28;20675;-66
2023/06/01 19:12:53;;;;;;;9.60;3.50;;;;;;;14.27;64.64;96422.16;10584140;22;20673;-67
2023/06/01 19:17:54;;;;;;;6.13;3.60;;;;;;;14.05;67.20;96439.75;10583040;28;20226;-66
2023/06/01 19:22:54;;;;;;;11.85;4.03;;;;;;;13.06;70.94;96479.44;10545660;28;20214;-66
2023/06/01 19:27:54;;;;;;;8.23;4.20;;;;;;;12.80;73.59;96478.00;10540539;28;20190;-66
2023/06/01 19:32:58;;;;;;;6.18;3.80;;;;;;;12.58;75.47;96471.78;10539857;28;20212;-66
2023/06/01 19:37:58;;;;;;;8.43;4.15;;;;;;;12.28;76.94;96464.56;10540105;28;20221;-65
2023/06/01 19:42:59;;;;;;;9.95;4.07;;;;;;;12.18;78.39;96474.47;10539675;28;20223;-65
2023/06/01 19:48:00;;;;;;;11.20;4.68;;;;;;;12.10;80.10;96469.28;10539691;28;20194;-66
2023/06/01 19:53:01;;;;;;;6.85;4.28;;;;;;;11.94;81.48;96481.50;10539486;28;20211;-66
2023/06/01 19:58:06;;;;;;;8.18;4.15;;;;;;;11.81;81.76;96480.34;10539322;28;20222;-65
2023/06/01 20:03:11;;;;;;;6.78;4.65;;;;;;;11.59;83.86;96487.97;10539176;28;20218;-66
2023/06/01 20:08:13;;;;;;;10.55;5.18;;;;;;;11.37;85.96;96494.75;10539318;28;20197;-65
2023/06/01 20:13:14;;;;;;;7.75;4.40;;;;;;;11.16;88.12;96500.50;10538280;28;20637;-66
2023/06/01 20:18:14;;;;;;;12.23;4.93;;;;;;;11.04;90.04;96503.47;10538756;28;20317;-65
2023/06/01 20:23:16;;;;;;;12.80;4.57;;;;;;;11.12;90.71;96492.16;10537972;28;20220;-66
2023/06/01 20:28:44;;;;;;;12.33;5.30;;;;;;;10.97;91.94;96497.25;10539374;28;20206;-65
2023/06/01 20:33:44;;;;;;;9.88;5.00;;;;;;;10.97;92.51;96504.28;10538465;28;20203;-63
2023/06/01 20:38:47;;;;;;;10.68;5.22;;;;;;;10.88;92.83;96506.09;10538013;28;20227;-64
2023/06/01 20:43:49;;;;;;;10.10;5.22;;;;;;;10.84;92.76;96504.75;10537125;28;20673;-64
2023/06/01 20:48:53;;;;;;;7.55;5.00;;;;;;;10.68;94.98;96509.00;10537634;28;20236;-64
2023/06/01 20:54:14;;;;;;;9.27;4.70;;;;;;;10.66;95.43;96513.59;10539284;28;20198;-65
2023/06/01 20:59:17;;;;;;;15.00;5.47;;;;;;;10.48;97.54;96513.72;10537821;28;20313;-64
2023/06/01 21:04:19;;;;;;;8.13;5.50;;;;;;;10.56;97.42;96509.50;10537202;28;20201;-65
2023/06/01 21:09:21;;;;;;;11.87;5.30;;;;;;;10.36;99.17;96509.78;10537087;28;20230;-64
2023/06/01 21:14:22;;;;;;;11.37;5.23;;;;;;;10.29;100.00;96520.03;10537486;28;20194;-66
2023/06/01 21:19:22;;;;;;;12.10;6.00;;;;;;;10.25;100.00;96521.34;10528215;28;20250;-65
2023/06/01 21:24:22;;;;;;;10.13;5.67;;;;;;;10.09;100.00;96523.88;10536598;28;20202;-65
2023/06/01 21:29:23;;;;;;;12.47;6.17;;;;;;;9.99;100.00;96527.44;10536469;28;20241;-65
2023/06/01 21:34:23;;;;;;;9.90;6.60;;;;;;;9.95;100.00;96535.78;10536381;28;20222;-65
2023/06/01 21:39:23;;;;;;;12.80;5.57;;;;;;;9.99;100.00;96553.63;10535948;28;20238;-65
2023/06/01 21:44:24;;;;;;;10.23;6.07;;;;;;;10.00;100.00;96557.88;10535880;28;20205;-63
2023/06/01 21:49:24;;;;;;;7.57;6.03;;;;;;;10.02;100.00;96562.97;10535939;28;20301;-64
2023/06/01 21:54:24;;;;;;;15.10;6.67;;;;;;;9.86;100.00;96560.25;10535764;28;20197;-65
2023/06/01 21:59:25;;;;;;;10.33;6.33;;;;;;;9.95;100.00;96561.94;10535538;28;20230;-65
2023/06/01 22:04:25;;;;;;;13.03;6.60;;;;;;;9.78;100.00;96561.03;10535328;28;20190;-66
2023/06/01 22:09:26;;;;;;;11.37;6.87;;;;;;;9.92;100.00;96567.50;10535453;28;20234;-64
2023/06/01 22:14:26;;;;;;;10.67;6.73;;;;;;;9.93;100.00;96577.00;10535525;28;20209;-65
2023/06/01 22:19:26;;;;;;;14.77;8.07;;;;;;;10.04;100.00;96571.47;10535274;28;20229;-65
2023/06/01 22:24:27;;;;;;;8.50;6.57;;;;;;;10.07;100.00;96579.00;10535304;28;20282;-65
2023/06/01 22:29:27;;;;;;;14.97;7.40;;;;;;;9.94;100.00;96571.59;10535104;28;20268;-66
2023/06/01 22:34:28;;;;;;;13.33;7.03;;;;;;;9.73;100.00;96586.84;10535335;28;20198;-65
2023/06/01 22:39:28;;;;;;;15.17;8.83;;;;;;;9.73;100.00;96586.84;10534967;28;20210;-65
2023/06/01 22:44:28;;;;;;;16.33;7.70;;;;;;;9.79;100.00;96589.66;10535199;28;20543;-65
2023/06/01 22:49:33;;;;;;;11.07;7.67;;;;;;;9.81;100.00;96590.31;10534681;28;20206;-64
2023/06/01 22:54:34;;;;;;;13.90;6.87;;;;;;;9.80;100.00;96591.31;10534763;28;20190;-65
2023/06/01 22:59:34;;;;;;;14.40;6.93;;;;;;;9.81;100.00;96590.31;10534624;28;20249;-64
2023/06/01 23:04:36;;;;;;;16.83;7.83;;;;;;;9.76;100.00;96591.78;10534432;28;20191;-65
2023/06/01 23:09:39;;;;;;;14.67;8.23;;;;;;;9.77;100.00;96589.00;10540980;28;20238;-65
2023/06/01 23:14:41;;;;;;;11.10;7.50;;;;;;;9.82;100.00;96593.78;10541661;28;20205;-64
2023/06/01 23:19:42;;;;;;;13.97;7.90;;;;;;;9.63;100.00;96586.94;10541475;28;20309;-65
2023/06/01 23:24:42;;;;;;;18.40;7.93;;;;;;;9.49;100.00;96593.53;10541615;28;20973;-65